sensor_id;sensor_type;location;lat;lon;timestamp;temperature;humidity
70145;DHT22;57510;51.068;3.872;2022-09-11T00:01:24;15.60;99.90
70145;DHT22;57510;51.068;3.872;2022-09-11T00:03:50;15.60;99.90
70145;DHT22;57510;51.068;3.872;2022-09-11T00:06:18;15.60;99.90
70145;DHT22;57510;51.068;3.872;2022-09-11T00:09:07;15.60;99.90
70145;DHT22;57510;51.068;3.872;2022-09-11T00:11:37;15.50;99.90
70145;DHT22;57510;51.068;3.872;2022-09-11T00:14:05;15.50;99.90
70145;DHT22;57510;51.068;3.872;2022-09-11T00:16:36;15.50;99.90
70145;DHT22;57510;51.068;3.872;2022-09-11T00:19:11;15.50;99.90
70145;DHT22;57510;51.068;3.872;2022-09-11T00:21:37;15.50;99.90
70145;DHT22;57510;51.068;3.872;2022-09-11T00:24:04;15.50;99.90
70145;DHT22;57510;51.068;3.872;2022-09-11T00:26:30;15.50;99.90
70145;DHT22;57510;51.068;3.872;2022-09-11T00:28:56;15.50;99.90
70145;DHT22;57510;51.068;3.872;2022-09-11T00:31:25;15.50;99.90
70145;DHT22;57510;51.068;3.872;2022-09-11T00:33:56;15.50;99.90
70145;DHT22;57510;51.068;3.872;2022-09-11T00:36:24;15.50;99.90
70145;DHT22;57510;51.068;3.872;2022-09-11T00:38:51;15.40;99.90
70145;DHT22;57510;51.068;3.872;2022-09-11T00:44:03;15.30;99.90
70145;DHT22;57510;51.068;3.872;2022-09-11T00:46:42;15.30;99.90
70145;DHT22;57510;51.068;3.872;2022-09-11T00:49:37;15.30;99.90
70145;DHT22;57510;51.068;3.872;2022-09-11T00:54:38;15.20;99.90
70145;DHT22;57510;51.068;3.872;2022-09-11T00:57:07;15.20;99.90
70145;DHT22;57510;51.068;3.872;2022-09-11T00:59:34;15.20;99.90
70145;DHT22;57510;51.068;3.872;2022-09-11T01:02:01;15.20;99.90
70145;DHT22;57510;51.068;3.872;2022-09-11T01:04:29;15.20;99.90
70145;DHT22;57510;51.068;3.872;2022-09-11T01:06:56;15.10;99.90
70145;DHT22;57510;51.068;3.872;2022-09-11T01:09:28;15.10;99.90
70145;DHT22;57510;51.068;3.872;2022-09-11T01:12:09;15.00;99.90
70145;DHT22;57510;51.068;3.872;2022-09-11T01:15:00;15.00;99.90
70145;DHT22;57510;51.068;3.872;2022-09-11T01:23:12;15.00;99.90
70145;DHT22;57510;51.068;3.872;2022-09-11T01:31:34;14.90;99.90
70145;DHT22;57510;51.068;3.872;2022-09-11T01:34:11;14.90;99.90
70145;DHT22;57510;51.068;3.872;2022-09-11T01:36:42;14.80;99.90
70145;DHT22;57510;51.068;3.872;2022-09-11T01:39:09;14.80;99.90
70145;DHT22;57510;51.068;3.872;2022-09-11T01:41:41;14.80;99.90
70145;DHT22;57510;51.068;3.872;2022-09-11T01:44:16;14.80;99.90
70145;DHT22;57510;51.068;3.872;2022-09-11T01:46:46;14.80;99.90
70145;DHT22;57510;51.068;3.872;2022-09-11T01:49:18;14.80;99.90
70145;DHT22;57510;51.068;3.872;2022-09-11T01:51:47;14.80;99.90
70145;DHT22;57510;51.068;3.872;2022-09-11T01:54:19;14.80;99.90
70145;DHT22;57510;51.068;3.872;2022-09-11T01:56:53;14.70;99.90
70145;DHT22;57510;51.068;3.872;2022-09-11T01:59:26;14.70;99.90
70145;DHT22;57510;51.068;3.872;2022-09-11T02:02:05;14.70;99.90
70145;DHT22;57510;51.068;3.872;2022-09-11T02:04:40;14.70;99.90
70145;DHT22;57510;51.068;3.872;2022-09-11T02:07:14;14.70;99.90
70145;DHT22;57510;51.068;3.872;2022-09-11T02:10:07;14.70;99.90
70145;DHT22;57510;51.068;3.872;2022-09-11T02:12:43;14.70;99.90
70145;DHT22;57510;51.068;3.872;2022-09-11T02:15:10;14.70;99.90
70145;DHT22;57510;51.068;3.872;2022-09-11T02:17:53;14.60;99.90
70145;DHT22;57510;51.068;3.872;2022-09-11T02:20:21;14.60;99.90
70145;DHT22;57510;51.068;3.872;2022-09-11T02:22:47;14.60;99.90
70145;DHT22;57510;51.068;3.872;2022-09-11T02:25:14;14.60;99.90
70145;DHT22;57510;51.068;3.872;2022-09-11T02:27:40;14.60;99.90
70145;DHT22;57510;51.068;3.872;2022-09-11T02:30:07;14.60;99.90
70145;DHT22;57510;51.068;3.872;2022-09-11T02:32:35;14.50;99.90
70145;DHT22;57510;51.068;3.872;2022-09-11T02:35:04;14.50;99.90
70145;DHT22;57510;51.068;3.872;2022-09-11T02:38:06;14.50;99.90
70145;DHT22;57510;51.068;3.872;2022-09-11T02:54:51;14.40;99.90
70145;DHT22;57510;51.068;3.872;2022-09-11T02:57:41;14.30;99.90
70145;DHT22;57510;51.068;3.872;2022-09-11T03:00:10;14.40;99.90
70145;DHT22;57510;51.068;3.872;2022-09-11T03:02:40;14.40;99.90
70145;DHT22;57510;51.068;3.872;2022-09-11T03:05:08;14.40;99.90
70145;DHT22;57510;51.068;3.872;2022-09-11T03:07:35;14.30;99.90
70145;DHT22;57510;51.068;3.872;2022-09-11T03:10:01;14.30;99.90
70145;DHT22;57510;51.068;3.872;2022-09-11T03:12:28;14.30;99.90
70145;DHT22;57510;51.068;3.872;2022-09-11T03:14:54;14.30;99.90
70145;DHT22;57510;51.068;3.872;2022-09-11T03:17:20;14.30;99.90
70145;DHT22;57510;51.068;3.872;2022-09-11T03:19:46;14.20;99.90
70145;DHT22;57510;51.068;3.872;2022-09-11T03:22:12;14.30;99.90
70145;DHT22;57510;51.068;3.872;2022-09-11T03:24:40;14.30;99.90
70145;DHT22;57510;51.068;3.872;2022-09-11T03:27:06;14.20;99.90
70145;DHT22;57510;51.068;3.872;2022-09-11T03:29:38;14.20;99.90
70145;DHT22;57510;51.068;3.872;2022-09-11T03:32:04;14.20;99.90
70145;DHT22;57510;51.068;3.872;2022-09-11T03:34:43;14.20;99.90
70145;DHT22;57510;51.068;3.872;2022-09-11T03:37:13;14.10;99.90
70145;DHT22;57510;51.068;3.872;2022-09-11T03:39:40;14.10;99.90
70145;DHT22;57510;51.068;3.872;2022-09-11T03:42:07;14.10;99.90
70145;DHT22;57510;51.068;3.872;2022-09-11T03:44:38;14.10;99.90
70145;DHT22;57510;51.068;3.872;2022-09-11T03:47:05;14.10;99.90
70145;DHT22;57510;51.068;3.872;2022-09-11T03:49:31;14.00;99.90
70145;DHT22;57510;51.068;3.872;2022-09-11T03:51:57;14.00;99.90
70145;DHT22;57510;51.068;3.872;2022-09-11T03:54:23;14.00;99.90
70145;DHT22;57510;51.068;3.872;2022-09-11T03:56:49;14.00;99.90
70145;DHT22;57510;51.068;3.872;2022-09-11T03:59:15;14.00;99.90
70145;DHT22;57510;51.068;3.872;2022-09-11T04:01:40;14.00;99.90
70145;DHT22;57510;51.068;3.872;2022-09-11T04:04:06;14.00;99.90
70145;DHT22;57510;51.068;3.872;2022-09-11T04:06:32;14.00;99.90
70145;DHT22;57510;51.068;3.872;2022-09-11T04:08:58;14.00;99.90
70145;DHT22;57510;51.068;3.872;2022-09-11T04:11:24;14.00;99.90
70145;DHT22;57510;51.068;3.872;2022-09-11T04:13:51;14.00;99.90
70145;DHT22;57510;51.068;3.872;2022-09-11T04:16:18;14.00;99.90
70145;DHT22;57510;51.068;3.872;2022-09-11T04:18:46;14.00;99.90
70145;DHT22;57510;51.068;3.872;2022-09-11T04:21:14;14.10;99.90
70145;DHT22;57510;51.068;3.872;2022-09-11T04:23:40;14.20;99.90
70145;DHT22;57510;51.068;3.872;2022-09-11T04:26:15;14.20;99.90
70145;DHT22;57510;51.068;3.872;2022-09-11T04:28:51;14.30;99.90
70145;DHT22;57510;51.068;3.872;2022-09-11T04:31:17;14.30;99.90
70145;DHT22;57510;51.068;3.872;2022-09-11T04:33:44;14.40;99.90
70145;DHT22;57510;51.068;3.872;2022-09-11T04:36:15;14.50;99.90
70145;DHT22;57510;51.068;3.872;2022-09-11T04:38:45;14.50;99.90
70145;DHT22;57510;51.068;3.872;2022-09-11T04:41:11;14.60;99.90
70145;DHT22;57510;51.068;3.872;2022-09-11T04:43:39;14.60;99.90
70145;DHT22;57510;51.068;3.872;2022-09-11T04:46:16;14.70;99.90
70145;DHT22;57510;51.068;3.872;2022-09-11T04:48:46;14.70;99.90
70145;DHT22;57510;51.068;3.872;2022-09-11T04:51:21;14.70;99.90
70145;DHT22;57510;51.068;3.872;2022-09-11T04:53:53;14.70;99.90
70145;DHT22;57510;51.068;3.872;2022-09-11T04:56:23;14.80;99.90
70145;DHT22;57510;51.068;3.872;2022-09-11T04:58:58;14.80;99.90
70145;DHT22;57510;51.068;3.872;2022-09-11T05:01:29;14.80;99.90
70145;DHT22;57510;51.068;3.872;2022-09-11T05:03:55;14.90;99.90
70145;DHT22;57510;51.068;3.872;2022-09-11T05:06:21;14.90;99.90
70145;DHT22;57510;51.068;3.872;2022-09-11T05:08:47;14.90;99.90
70145;DHT22;57510;51.068;3.872;2022-09-11T05:11:14;14.90;99.90
70145;DHT22;57510;51.068;3.872;2022-09-11T05:13:41;14.90;99.90
70145;DHT22;57510;51.068;3.872;2022-09-11T05:16:10;15.00;99.90
70145;DHT22;57510;51.068;3.872;2022-09-11T05:18:37;15.10;99.90
70145;DHT22;57510;51.068;3.872;2022-09-11T05:21:06;15.10;99.90
70145;DHT22;57510;51.068;3.872;2022-09-11T05:23:32;15.10;99.90
70145;DHT22;57510;51.068;3.872;2022-09-11T05:26:00;15.10;99.90
70145;DHT22;57510;51.068;3.872;2022-09-11T05:28:26;15.10;99.90
70145;DHT22;57510;51.068;3.872;2022-09-11T05:30:54;15.10;99.90
70145;DHT22;57510;51.068;3.872;2022-09-11T05:33:21;15.20;99.90
70145;DHT22;57510;51.068;3.872;2022-09-11T05:35:54;15.30;99.90
70145;DHT22;57510;51.068;3.872;2022-09-11T05:38:21;15.30;99.90
70145;DHT22;57510;51.068;3.872;2022-09-11T05:40:49;15.40;99.90
70145;DHT22;57510;51.068;3.872;2022-09-11T05:43:16;15.40;99.90
70145;DHT22;57510;51.068;3.872;2022-09-11T05:45:43;15.40;99.90
70145;DHT22;57510;51.068;3.872;2022-09-11T05:48:10;15.50;99.90
70145;DHT22;57510;51.068;3.872;2022-09-11T05:50:37;15.60;99.90
70145;DHT22;57510;51.068;3.872;2022-09-11T05:53:04;15.60;99.90
70145;DHT22;57510;51.068;3.872;2022-09-11T05:55:33;15.70;99.90
70145;DHT22;57510;51.068;3.872;2022-09-11T05:58:00;15.80;99.90
70145;DHT22;57510;51.068;3.872;2022-09-11T06:00:26;15.80;99.90
70145;DHT22;57510;51.068;3.872;2022-09-11T06:02:54;15.90;99.90
70145;DHT22;57510;51.068;3.872;2022-09-11T06:05:20;16.10;99.90
70145;DHT22;57510;51.068;3.872;2022-09-11T06:07:47;16.10;99.90
70145;DHT22;57510;51.068;3.872;2022-09-11T06:10:13;16.20;99.90
70145;DHT22;57510;51.068;3.872;2022-09-11T06:12:39;16.20;99.90
70145;DHT22;57510;51.068;3.872;2022-09-11T06:15:05;16.30;99.90
70145;DHT22;57510;51.068;3.872;2022-09-11T06:17:31;16.30;99.90
70145;DHT22;57510;51.068;3.872;2022-09-11T06:19:57;16.30;99.90
70145;DHT22;57510;51.068;3.872;2022-09-11T06:22:24;16.30;99.90
70145;DHT22;57510;51.068;3.872;2022-09-11T06:24:49;16.40;99.90
70145;DHT22;57510;51.068;3.872;2022-09-11T06:27:16;16.50;99.90
70145;DHT22;57510;51.068;3.872;2022-09-11T06:29:43;16.50;99.90
70145;DHT22;57510;51.068;3.872;2022-09-11T06:32:11;16.70;99.90
70145;DHT22;57510;51.068;3.872;2022-09-11T06:34:48;16.80;99.90
70145;DHT22;57510;51.068;3.872;2022-09-11T06:37:13;16.80;99.90
70145;DHT22;57510;51.068;3.872;2022-09-11T06:39:41;16.90;99.90
70145;DHT22;57510;51.068;3.872;2022-09-11T06:42:07;16.90;99.90
70145;DHT22;57510;51.068;3.872;2022-09-11T06:44:33;16.90;99.90
70145;DHT22;57510;51.068;3.872;2022-09-11T06:47:00;17.00;99.90
70145;DHT22;57510;51.068;3.872;2022-09-11T06:49:27;17.10;99.90
70145;DHT22;57510;51.068;3.872;2022-09-11T06:51:53;17.20;99.90
70145;DHT22;57510;51.068;3.872;2022-09-11T06:54:19;17.20;99.90
70145;DHT22;57510;51.068;3.872;2022-09-11T06:56:49;17.30;99.90
70145;DHT22;57510;51.068;3.872;2022-09-11T07:02:09;17.40;99.90
70145;DHT22;57510;51.068;3.872;2022-09-11T07:04:40;17.50;99.90
70145;DHT22;57510;51.068;3.872;2022-09-11T07:07:17;17.50;99.90
70145;DHT22;57510;51.068;3.872;2022-09-11T07:10:05;17.40;99.90
70145;DHT22;57510;51.068;3.872;2022-09-11T07:12:34;17.40;99.90
70145;DHT22;57510;51.068;3.872;2022-09-11T07:15:00;17.40;99.90
70145;DHT22;57510;51.068;3.872;2022-09-11T07:17:25;17.40;99.90
70145;DHT22;57510;51.068;3.872;2022-09-11T07:19:52;17.50;99.90
70145;DHT22;57510;51.068;3.872;2022-09-11T07:22:25;17.50;99.90
70145;DHT22;57510;51.068;3.872;2022-09-11T07:25:01;17.50;99.90
70145;DHT22;57510;51.068;3.872;2022-09-11T07:27:42;17.50;99.90
70145;DHT22;57510;51.068;3.872;2022-09-11T07:30:09;17.50;99.90
70145;DHT22;57510;51.068;3.872;2022-09-11T07:32:35;17.60;99.90
70145;DHT22;57510;51.068;3.872;2022-09-11T07:35:24;17.80;99.90
70145;DHT22;57510;51.068;3.872;2022-09-11T07:37:52;18.00;99.90
70145;DHT22;57510;51.068;3.872;2022-09-11T07:40:18;18.00;99.90
70145;DHT22;57510;51.068;3.872;2022-09-11T07:42:44;18.10;99.90
70145;DHT22;57510;51.068;3.872;2022-09-11T07:45:09;18.10;99.90
70145;DHT22;57510;51.068;3.872;2022-09-11T07:47:39;18.20;99.90
70145;DHT22;57510;51.068;3.872;2022-09-11T07:50:05;18.20;99.90
70145;DHT22;57510;51.068;3.872;2022-09-11T07:52:41;18.40;99.90
70145;DHT22;57510;51.068;3.872;2022-09-11T07:55:07;18.50;99.90
70145;DHT22;57510;51.068;3.872;2022-09-11T07:57:36;18.60;99.90
70145;DHT22;57510;51.068;3.872;2022-09-11T08:00:09;18.70;99.90
70145;DHT22;57510;51.068;3.872;2022-09-11T08:02:35;18.80;99.90
70145;DHT22;57510;51.068;3.872;2022-09-11T08:05:01;18.90;99.90
70145;DHT22;57510;51.068;3.872;2022-09-11T08:07:30;18.90;99.90
70145;DHT22;57510;51.068;3.872;2022-09-11T08:10:01;18.90;99.90
70145;DHT22;57510;51.068;3.872;2022-09-11T08:12:30;19.10;99.90
70145;DHT22;57510;51.068;3.872;2022-09-11T08:14:56;19.20;99.90
70145;DHT22;57510;51.068;3.872;2022-09-11T08:17:23;19.30;99.90
70145;DHT22;57510;51.068;3.872;2022-09-11T08:19:49;19.30;99.90
70145;DHT22;57510;51.068;3.872;2022-09-11T08:22:17;19.50;99.90
70145;DHT22;57510;51.068;3.872;2022-09-11T08:24:48;19.60;99.90
70145;DHT22;57510;51.068;3.872;2022-09-11T08:27:16;19.60;99.90
70145;DHT22;57510;51.068;3.872;2022-09-11T08:29:42;19.60;99.90
70145;DHT22;57510;51.068;3.872;2022-09-11T08:32:08;19.60;99.90
70145;DHT22;57510;51.068;3.872;2022-09-11T08:34:44;19.60;99.90
70145;DHT22;57510;51.068;3.872;2022-09-11T08:37:10;19.50;99.90
70145;DHT22;57510;51.068;3.872;2022-09-11T08:39:35;19.40;99.90
70145;DHT22;57510;51.068;3.872;2022-09-11T08:42:08;19.30;99.90
70145;DHT22;57510;51.068;3.872;2022-09-11T08:44:47;19.20;99.90
70145;DHT22;57510;51.068;3.872;2022-09-11T08:47:17;19.20;99.90
70145;DHT22;57510;51.068;3.872;2022-09-11T08:52:43;19.20;99.90
70145;DHT22;57510;51.068;3.872;2022-09-11T08:55:12;19.30;99.90
70145;DHT22;57510;51.068;3.872;2022-09-11T09:00:56;19.50;99.90
70145;DHT22;57510;51.068;3.872;2022-09-11T09:06:42;19.70;99.90
70145;DHT22;57510;51.068;3.872;2022-09-11T09:20:27;20.10;99.90
70145;DHT22;57510;51.068;3.872;2022-09-11T09:22:55;20.20;99.90
70145;DHT22;57510;51.068;3.872;2022-09-11T09:25:24;20.30;99.90
70145;DHT22;57510;51.068;3.872;2022-09-11T09:28:24;20.40;99.90
70145;DHT22;57510;51.068;3.872;2022-09-11T09:30:56;20.40;99.90
70145;DHT22;57510;51.068;3.872;2022-09-11T09:33:48;20.50;99.90
70145;DHT22;57510;51.068;3.872;2022-09-11T09:36:37;20.60;99.90
70145;DHT22;57510;51.068;3.872;2022-09-11T09:39:23;20.70;99.90
70145;DHT22;57510;51.068;3.872;2022-09-11T09:42:27;20.70;99.90
70145;DHT22;57510;51.068;3.872;2022-09-11T09:45:32;20.80;99.90
70145;DHT22;57510;51.068;3.872;2022-09-11T09:47:59;20.90;99.90
70145;DHT22;57510;51.068;3.872;2022-09-11T09:50:33;20.90;99.90
70145;DHT22;57510;51.068;3.872;2022-09-11T09:53:39;21.10;99.90
70145;DHT22;57510;51.068;3.872;2022-09-11T09:56:11;21.10;99.90
70145;DHT22;57510;51.068;3.872;2022-09-11T09:58:53;21.10;99.90
70145;DHT22;57510;51.068;3.872;2022-09-11T10:06:50;21.50;99.90
70145;DHT22;57510;51.068;3.872;2022-09-11T10:09:30;21.50;99.90
70145;DHT22;57510;51.068;3.872;2022-09-11T10:12:05;21.70;99.90
70145;DHT22;57510;51.068;3.872;2022-09-11T10:14:49;21.60;99.90
70145;DHT22;57510;51.068;3.872;2022-09-11T10:17:20;21.50;99.40
70145;DHT22;57510;51.068;3.872;2022-09-11T10:19:46;21.50;99.90
70145;DHT22;57510;51.068;3.872;2022-09-11T10:22:23;21.80;99.90
70145;DHT22;57510;51.068;3.872;2022-09-11T10:27:29;22.10;98.80
70145;DHT22;57510;51.068;3.872;2022-09-11T10:29:56;22.10;99.90
70145;DHT22;57510;51.068;3.872;2022-09-11T10:32:24;22.20;99.90
70145;DHT22;57510;51.068;3.872;2022-09-11T10:34:51;22.40;99.90
70145;DHT22;57510;51.068;3.872;2022-09-11T10:37:28;22.40;99.90
70145;DHT22;57510;51.068;3.872;2022-09-11T10:40:05;22.50;98.80
70145;DHT22;57510;51.068;3.872;2022-09-11T10:42:33;22.60;99.80
70145;DHT22;57510;51.068;3.872;2022-09-11T10:45:15;22.70;99.80
70145;DHT22;57510;51.068;3.872;2022-09-11T10:47:41;22.70;99.10
70145;DHT22;57510;51.068;3.872;2022-09-11T10:52:59;22.80;96.10
70145;DHT22;57510;51.068;3.872;2022-09-11T10:55:33;22.70;94.90
70145;DHT22;57510;51.068;3.872;2022-09-11T10:58:13;23.00;99.00
70145;DHT22;57510;51.068;3.872;2022-09-11T11:00:40;23.00;94.20
70145;DHT22;57510;51.068;3.872;2022-09-11T11:03:16;22.60;94.90
70145;DHT22;57510;51.068;3.872;2022-09-11T11:11:12;22.50;97.60
70145;DHT22;57510;51.068;3.872;2022-09-11T11:14:06;22.80;97.50
70145;DHT22;57510;51.068;3.872;2022-09-11T11:19:23;23.30;94.70
70145;DHT22;57510;51.068;3.872;2022-09-11T11:35:15;24.10;93.50
70145;DHT22;57510;51.068;3.872;2022-09-11T11:37:45;24.20;93.70
70145;DHT22;57510;51.068;3.872;2022-09-11T11:43:14;24.00;89.60
70145;DHT22;57510;51.068;3.872;2022-09-11T11:45:46;23.90;90.70
70145;DHT22;57510;51.068;3.872;2022-09-11T11:48:20;24.00;92.00
70145;DHT22;57510;51.068;3.872;2022-09-11T11:50:52;24.20;89.90
70145;DHT22;57510;51.068;3.872;2022-09-11T11:58:44;24.10;88.50
70145;DHT22;57510;51.068;3.872;2022-09-11T12:01:23;24.20;88.90
70145;DHT22;57510;51.068;3.872;2022-09-11T12:03:59;24.50;90.50
70145;DHT22;57510;51.068;3.872;2022-09-11T12:06:26;24.50;87.80
70145;DHT22;57510;51.068;3.872;2022-09-11T12:08:53;24.60;87.90
70145;DHT22;57510;51.068;3.872;2022-09-11T12:11:28;24.80;86.80
70145;DHT22;57510;51.068;3.872;2022-09-11T12:13:55;24.80;83.30
70145;DHT22;57510;51.068;3.872;2022-09-11T12:16:31;24.70;83.40
70145;DHT22;57510;51.068;3.872;2022-09-11T12:19:14;25.00;83.80
70145;DHT22;57510;51.068;3.872;2022-09-11T12:32:59;25.10;80.60
70145;DHT22;57510;51.068;3.872;2022-09-11T12:40:37;24.60;80.90
70145;DHT22;57510;51.068;3.872;2022-09-11T12:45:42;25.10;80.50
70145;DHT22;57510;51.068;3.872;2022-09-11T12:48:15;25.00;81.60
70145;DHT22;57510;51.068;3.872;2022-09-11T12:50:54;25.00;81.60
70145;DHT22;57510;51.068;3.872;2022-09-11T12:53:26;25.10;82.00
70145;DHT22;57510;51.068;3.872;2022-09-11T12:56:01;25.40;80.90
70145;DHT22;57510;51.068;3.872;2022-09-11T13:03:35;25.30;81.50
70145;DHT22;57510;51.068;3.872;2022-09-11T13:06:08;25.50;81.70
70145;DHT22;57510;51.068;3.872;2022-09-11T13:09:02;25.20;82.60
70145;DHT22;57510;51.068;3.872;2022-09-11T13:11:39;25.50;80.80
70145;DHT22;57510;51.068;3.872;2022-09-11T13:16:53;25.60;79.00
70145;DHT22;57510;51.068;3.872;2022-09-11T13:19:19;25.10;80.00
70145;DHT22;57510;51.068;3.872;2022-09-11T13:21:49;24.90;81.20
70145;DHT22;57510;51.068;3.872;2022-09-11T13:24:31;25.10;81.90
70145;DHT22;57510;51.068;3.872;2022-09-11T13:26:58;25.00;82.70
70145;DHT22;57510;51.068;3.872;2022-09-11T13:29:27;24.70;82.70
70145;DHT22;57510;51.068;3.872;2022-09-11T13:31:54;24.80;83.70
70145;DHT22;57510;51.068;3.872;2022-09-11T13:34:24;24.80;81.70
70145;DHT22;57510;51.068;3.872;2022-09-11T13:36:51;24.60;83.50
70145;DHT22;57510;51.068;3.872;2022-09-11T13:39:18;24.60;83.00
70145;DHT22;57510;51.068;3.872;2022-09-11T13:41:46;24.60;83.10
70145;DHT22;57510;51.068;3.872;2022-09-11T13:44:38;24.60;81.60
70145;DHT22;57510;51.068;3.872;2022-09-11T13:47:22;24.70;82.90
70145;DHT22;57510;51.068;3.872;2022-09-11T13:49:50;24.70;82.70
70145;DHT22;57510;51.068;3.872;2022-09-11T13:52:20;24.80;80.60
70145;DHT22;57510;51.068;3.872;2022-09-11T13:54:52;24.90;78.90
70145;DHT22;57510;51.068;3.872;2022-09-11T13:57:21;24.60;80.70
70145;DHT22;57510;51.068;3.872;2022-09-11T13:59:59;24.40;80.70
70145;DHT22;57510;51.068;3.872;2022-09-11T14:02:33;24.30;81.40
70145;DHT22;57510;51.068;3.872;2022-09-11T14:05:23;24.10;82.40
70145;DHT22;57510;51.068;3.872;2022-09-11T14:08:02;24.00;82.30
70145;DHT22;57510;51.068;3.872;2022-09-11T14:15:54;23.60;83.90
70145;DHT22;57510;51.068;3.872;2022-09-11T14:20:50;23.60;84.60
70145;DHT22;57510;51.068;3.872;2022-09-11T14:23:21;23.70;84.60
70145;DHT22;57510;51.068;3.872;2022-09-11T14:28:59;24.10;83.70
70145;DHT22;57510;51.068;3.872;2022-09-11T14:31:39;24.10;82.80
70145;DHT22;57510;51.068;3.872;2022-09-11T14:41:51;25.20;80.10
70145;DHT22;57510;51.068;3.872;2022-09-11T14:44:22;26.00;78.60
70145;DHT22;57510;51.068;3.872;2022-09-11T14:46:51;26.80;76.70
70145;DHT22;57510;51.068;3.872;2022-09-11T14:49:17;27.40;76.70
70145;DHT22;57510;51.068;3.872;2022-09-11T14:51:46;28.40;74.60
70145;DHT22;57510;51.068;3.872;2022-09-11T14:54:17;28.60;71.70
70145;DHT22;57510;51.068;3.872;2022-09-11T14:56:44;28.70;72.20
70145;DHT22;57510;51.068;3.872;2022-09-11T14:59:11;28.40;72.40
70145;DHT22;57510;51.068;3.872;2022-09-11T15:01:37;27.80;72.80
70145;DHT22;57510;51.068;3.872;2022-09-11T15:04:03;27.60;74.10
70145;DHT22;57510;51.068;3.872;2022-09-11T15:06:29;27.60;75.30
70145;DHT22;57510;51.068;3.872;2022-09-11T15:08:56;28.10;72.40
70145;DHT22;57510;51.068;3.872;2022-09-11T15:11:22;28.00;71.70
70145;DHT22;57510;51.068;3.872;2022-09-11T15:13:49;28.60;71.60
70145;DHT22;57510;51.068;3.872;2022-09-11T15:16:14;30.00;69.70
70145;DHT22;57510;51.068;3.872;2022-09-11T15:18:40;30.40;67.20
70145;DHT22;57510;51.068;3.872;2022-09-11T15:21:07;31.40;66.80
70145;DHT22;57510;51.068;3.872;2022-09-11T15:23:33;32.10;63.20
70145;DHT22;57510;51.068;3.872;2022-09-11T15:25:59;32.90;61.30
70145;DHT22;57510;51.068;3.872;2022-09-11T15:28:28;33.80;60.60
70145;DHT22;57510;51.068;3.872;2022-09-11T15:30:55;34.20;57.00
70145;DHT22;57510;51.068;3.872;2022-09-11T15:33:29;34.20;55.10
70145;DHT22;57510;51.068;3.872;2022-09-11T15:36:01;34.00;54.40
70145;DHT22;57510;51.068;3.872;2022-09-11T15:38:27;33.60;55.80
70145;DHT22;57510;51.068;3.872;2022-09-11T15:40:54;34.60;55.00
70145;DHT22;57510;51.068;3.872;2022-09-11T15:43:25;35.30;53.60
70145;DHT22;57510;51.068;3.872;2022-09-11T15:45:57;35.40;50.10
70145;DHT22;57510;51.068;3.872;2022-09-11T15:48:23;35.20;52.70
70145;DHT22;57510;51.068;3.872;2022-09-11T15:51:07;35.70;51.40
70145;DHT22;57510;51.068;3.872;2022-09-11T15:53:33;35.10;51.30
70145;DHT22;57510;51.068;3.872;2022-09-11T15:56:14;34.70;51.10
70145;DHT22;57510;51.068;3.872;2022-09-11T15:58:41;33.70;51.40
70145;DHT22;57510;51.068;3.872;2022-09-11T16:01:16;32.80;53.40
70145;DHT22;57510;51.068;3.872;2022-09-11T16:03:52;32.80;54.00
70145;DHT22;57510;51.068;3.872;2022-09-11T16:06:27;32.80;53.20
70145;DHT22;57510;51.068;3.872;2022-09-11T16:09:01;33.50;53.40
70145;DHT22;57510;51.068;3.872;2022-09-11T16:11:31;34.00;52.50
70145;DHT22;57510;51.068;3.872;2022-09-11T16:13:57;31.90;54.30
70145;DHT22;57510;51.068;3.872;2022-09-11T16:16:28;31.70;55.90
70145;DHT22;57510;51.068;3.872;2022-09-11T16:18:53;31.40;56.10
70145;DHT22;57510;51.068;3.872;2022-09-11T16:21:20;30.80;57.00
70145;DHT22;57510;51.068;3.872;2022-09-11T16:23:46;30.10;57.90
70145;DHT22;57510;51.068;3.872;2022-09-11T16:26:14;29.80;57.70
70145;DHT22;57510;51.068;3.872;2022-09-11T16:28:45;29.00;59.60
70145;DHT22;57510;51.068;3.872;2022-09-11T16:31:12;28.90;60.00
70145;DHT22;57510;51.068;3.872;2022-09-11T16:33:40;28.40;61.40
70145;DHT22;57510;51.068;3.872;2022-09-11T16:36:13;27.90;61.50
70145;DHT22;57510;51.068;3.872;2022-09-11T16:38:40;27.60;62.40
70145;DHT22;57510;51.068;3.872;2022-09-11T16:43:38;27.40;64.80
70145;DHT22;57510;51.068;3.872;2022-09-11T16:46:04;27.50;64.30
70145;DHT22;57510;51.068;3.872;2022-09-11T16:48:34;27.50;64.30
70145;DHT22;57510;51.068;3.872;2022-09-11T16:51:02;27.20;63.40
70145;DHT22;57510;51.068;3.872;2022-09-11T16:53:30;27.00;65.10
70145;DHT22;57510;51.068;3.872;2022-09-11T16:55:56;26.90;66.40
70145;DHT22;57510;51.068;3.872;2022-09-11T16:58:23;26.80;67.10
70145;DHT22;57510;51.068;3.872;2022-09-11T17:00:49;26.50;67.30
70145;DHT22;57510;51.068;3.872;2022-09-11T17:03:15;26.30;68.70
70145;DHT22;57510;51.068;3.872;2022-09-11T17:05:46;25.90;68.80
70145;DHT22;57510;51.068;3.872;2022-09-11T17:08:13;25.80;69.60
70145;DHT22;57510;51.068;3.872;2022-09-11T17:10:48;25.60;70.10
70145;DHT22;57510;51.068;3.872;2022-09-11T17:13:15;25.60;71.40
70145;DHT22;57510;51.068;3.872;2022-09-11T17:15:41;25.60;70.70
70145;DHT22;57510;51.068;3.872;2022-09-11T17:18:09;25.80;71.00
70145;DHT22;57510;51.068;3.872;2022-09-11T17:20:37;25.80;71.80
70145;DHT22;57510;51.068;3.872;2022-09-11T17:23:05;25.70;71.80
70145;DHT22;57510;51.068;3.872;2022-09-11T17:25:31;25.60;73.40
70145;DHT22;57510;51.068;3.872;2022-09-11T17:27:58;25.50;73.70
70145;DHT22;57510;51.068;3.872;2022-09-11T17:30:24;25.30;73.30
70145;DHT22;57510;51.068;3.872;2022-09-11T17:32:51;25.30;75.50
70145;DHT22;57510;51.068;3.872;2022-09-11T17:35:18;25.30;75.60
70145;DHT22;57510;51.068;3.872;2022-09-11T17:37:45;25.40;75.30
70145;DHT22;57510;51.068;3.872;2022-09-11T17:40:12;25.20;74.90
70145;DHT22;57510;51.068;3.872;2022-09-11T17:42:39;25.00;75.50
70145;DHT22;57510;51.068;3.872;2022-09-11T17:45:05;24.80;76.20
70145;DHT22;57510;51.068;3.872;2022-09-11T17:47:34;24.40;76.50
70145;DHT22;57510;51.068;3.872;2022-09-11T17:50:03;24.10;77.60
70145;DHT22;57510;51.068;3.872;2022-09-11T17:52:30;23.90;78.80
70145;DHT22;57510;51.068;3.872;2022-09-11T17:54:57;23.50;79.80
70145;DHT22;57510;51.068;3.872;2022-09-11T17:57:23;23.30;81.60
70145;DHT22;57510;51.068;3.872;2022-09-11T17:59:51;23.00;82.10
70145;DHT22;57510;51.068;3.872;2022-09-11T18:02:18;22.80;83.90
70145;DHT22;57510;51.068;3.872;2022-09-11T18:04:46;22.50;85.50
70145;DHT22;57510;51.068;3.872;2022-09-11T18:07:13;22.30;86.00
70145;DHT22;57510;51.068;3.872;2022-09-11T18:09:38;22.00;86.70
70145;DHT22;57510;51.068;3.872;2022-09-11T18:12:04;21.80;88.40
70145;DHT22;57510;51.068;3.872;2022-09-11T18:14:30;21.60;88.60